createdAt,value
2017-06-16T00:01:00.011Z,53.3
2017-06-16T00:02:01.592Z,53.2
2017-06-16T00:03:03.199Z,53.0
2017-06-16T00:04:04.799Z,53.4
2017-06-16T00:05:06.391Z,53.5
2017-06-16T00:06:07.981Z,53.6
2017-06-16T00:07:09.578Z,53.5
2017-06-16T00:08:11.162Z,53.4
2017-06-16T00:09:12.755Z,53.6
2017-06-16T00:10:14.363Z,53.6
2017-06-16T00:11:15.946Z,53.3
2017-06-16T00:12:17.536Z,54.0
2017-06-16T00:13:19.125Z,53.9
2017-06-16T00:14:20.834Z,54.1
2017-06-16T00:15:22.442Z,53.9
2017-06-16T00:16:24.071Z,53.9
2017-06-16T00:17:25.670Z,53.7
2017-06-16T00:18:27.305Z,53.8
2017-06-16T00:19:28.909Z,54.0
2017-06-16T00:20:30.500Z,53.8
2017-06-16T00:21:32.107Z,54.1
2017-06-16T00:22:33.719Z,54.4
2017-06-16T00:23:35.320Z,54.1
2017-06-16T00:24:36.906Z,54.5
2017-06-16T00:25:38.506Z,54.3
2017-06-16T00:26:40.108Z,54.2
2017-06-16T00:27:41.717Z,54.4
2017-06-16T00:28:43.305Z,54.2
2017-06-16T00:29:44.912Z,54.1
2017-06-16T00:30:46.498Z,54.8
2017-06-16T00:31:48.083Z,54.7
2017-06-16T00:32:49.668Z,54.7
2017-06-16T00:33:51.261Z,54.7
2017-06-16T00:34:52.879Z,54.8
2017-06-16T00:35:54.508Z,54.9
2017-06-16T00:36:56.107Z,54.9
2017-06-16T00:37:57.714Z,54.9
2017-06-16T00:38:59.332Z,54.8
2017-06-16T00:40:00.913Z,54.7
2017-06-16T00:41:02.510Z,54.7
2017-06-16T00:42:04.121Z,54.8
2017-06-16T00:43:05.707Z,55.2
2017-06-16T00:44:07.321Z,55.2
2017-06-16T00:45:08.945Z,54.8
2017-06-16T00:46:10.525Z,54.7
2017-06-16T00:47:12.123Z,54.9
2017-06-16T00:48:13.742Z,55.3
2017-06-16T00:49:15.380Z,55.3
2017-06-16T00:50:17.004Z,55.0
2017-06-16T00:51:18.607Z,55.2
2017-06-16T00:52:20.203Z,55.2
2017-06-16T00:53:21.855Z,54.9
2017-06-16T00:54:23.470Z,55.3
2017-06-16T00:55:25.078Z,55.2
2017-06-16T00:56:26.698Z,55.3
2017-06-16T00:57:28.305Z,54.9
2017-06-16T00:58:29.928Z,55.4
2017-06-16T00:59:31.540Z,55.2
2017-06-16T01:00:33.146Z,55.4
2017-06-16T01:01:34.756Z,55.4
2017-06-16T01:02:36.370Z,55.2
2017-06-16T01:03:37.960Z,55.0
2017-06-16T01:04:39.563Z,55.2
2017-06-16T01:05:41.164Z,55.2
2017-06-16T01:06:42.787Z,55.1
2017-06-16T01:07:44.389Z,55.4
2017-06-16T01:08:45.997Z,55.0
2017-06-16T01:09:47.583Z,55.2
2017-06-16T01:10:49.176Z,55.1
2017-06-16T01:11:50.815Z,55.1
2017-06-16T01:12:52.428Z,55.6
2017-06-16T01:13:54.042Z,55.4
2017-06-16T01:14:55.638Z,55.2
2017-06-16T01:15:57.245Z,55.0
2017-06-16T01:16:58.807Z,55.2
2017-06-16T01:18:00.420Z,55.2
2017-06-16T01:19:02.017Z,54.9
2017-06-16T01:20:03.621Z,55.4
2017-06-16T01:21:05.211Z,55.3
2017-06-16T01:22:06.800Z,55.2
2017-06-16T01:23:08.387Z,55.0
2017-06-16T01:24:09.981Z,55.2
2017-06-16T01:25:11.571Z,55.1
2017-06-16T01:26:13.157Z,55.1
2017-06-16T01:27:14.742Z,55.2
2017-06-16T01:28:16.360Z,55.3
2017-06-16T01:29:17.948Z,55.2
2017-06-16T01:30:19.576Z,55.1
2017-06-16T01:31:21.159Z,55.2
2017-06-16T01:32:22.741Z,55.1
2017-06-16T01:33:24.341Z,55.2
2017-06-16T01:34:25.933Z,55.0
2017-06-16T01:35:27.814Z,55.4
2017-06-16T01:36:29.411Z,55.8
2017-06-16T01:37:31.002Z,55.6
2017-06-16T01:38:32.617Z,55.7
2017-06-16T01:39:34.211Z,55.7
2017-06-16T01:40:35.822Z,55.7
2017-06-16T01:41:37.414Z,55.2
2017-06-16T01:42:38.999Z,55.2
2017-06-16T01:43:40.594Z,55.0
2017-06-16T01:44:42.197Z,55.0
2017-06-16T01:45:43.784Z,55.8
2017-06-16T01:46:45.400Z,55.5
2017-06-16T01:47:47.027Z,55.6
2017-06-16T01:48:48.629Z,55.7
2017-06-16T01:49:50.225Z,55.5
2017-06-16T01:50:51.869Z,55.4
2017-06-16T01:51:53.481Z,55.4
2017-06-16T01:52:55.072Z,55.4
2017-06-16T01:53:56.670Z,55.3
2017-06-16T01:54:58.300Z,55.3
2017-06-16T01:55:59.903Z,55.6
2017-06-16T01:57:01.514Z,55.7
2017-06-16T01:58:03.125Z,56.1
2017-06-16T01:59:04.711Z,56.1
2017-06-16T02:00:06.385Z,56.3
2017-06-16T02:01:07.962Z,56.3
2017-06-16T02:02:09.556Z,55.9
2017-06-16T02:03:11.178Z,55.8
2017-06-16T02:04:12.829Z,55.8
2017-06-16T02:05:14.416Z,55.8
2017-06-16T02:06:16.071Z,56.3
2017-06-16T02:07:17.667Z,56.0
2017-06-16T02:08:19.269Z,56.2
2017-06-16T02:09:20.869Z,56.1
2017-06-16T02:10:22.482Z,55.8
2017-06-16T02:11:24.087Z,56.0
2017-06-16T02:12:25.715Z,56.1
2017-06-16T02:13:27.341Z,56.3
2017-06-16T02:14:28.953Z,55.9
2017-06-16T02:15:31.082Z,56.0
2017-06-16T02:16:32.693Z,56.3
2017-06-16T02:17:34.322Z,56.1
2017-06-16T02:18:35.966Z,56.1
2017-06-16T02:19:37.568Z,55.8
2017-06-16T02:20:39.159Z,56.3
2017-06-16T02:21:40.792Z,56.6
2017-06-16T02:22:42.386Z,56.6
2017-06-16T02:23:44.014Z,56.5
2017-06-16T02:24:45.629Z,56.5
2017-06-16T02:25:47.231Z,56.5
2017-06-16T02:26:48.822Z,56.6
2017-06-16T02:27:50.414Z,56.6
2017-06-16T02:28:52.001Z,56.5
2017-06-16T02:29:53.591Z,56.7
2017-06-16T02:30:55.215Z,56.7
2017-06-16T02:31:56.813Z,56.6
2017-06-16T02:32:58.404Z,56.6
2017-06-16T02:34:00.019Z,56.9
2017-06-16T02:35:01.612Z,56.9
2017-06-16T02:36:03.226Z,57.0
2017-06-16T02:37:04.823Z,57.1
2017-06-16T02:38:06.435Z,56.8
2017-06-16T02:39:08.034Z,57.0
2017-06-16T02:40:09.625Z,57.1
2017-06-16T02:41:11.270Z,56.7
2017-06-16T02:42:12.880Z,57.1
2017-06-16T02:43:14.500Z,56.8
2017-06-16T02:44:16.091Z,57.1
2017-06-16T02:45:17.687Z,57.1
2017-06-16T02:46:19.350Z,57.1
2017-06-16T02:47:20.949Z,57.4
2017-06-16T02:48:22.540Z,57.2
2017-06-16T02:49:24.156Z,57.2
2017-06-16T02:50:25.776Z,57.3
2017-06-16T02:51:27.379Z,57.7
2017-06-16T02:52:28.994Z,57.2
2017-06-16T02:53:30.583Z,57.3
2017-06-16T02:54:32.333Z,57.5
2017-06-16T02:55:33.980Z,57.5
2017-06-16T02:56:35.573Z,57.4
2017-06-16T02:57:37.175Z,57.1
2017-06-16T02:58:38.768Z,57.3
2017-06-16T02:59:40.428Z,57.2
2017-06-16T03:00:42.029Z,57.7
2017-06-16T03:01:43.633Z,57.5
2017-06-16T03:02:45.219Z,57.9
2017-06-16T03:03:46.804Z,57.6
2017-06-16T03:04:48.399Z,58.1
2017-06-16T03:05:50.001Z,57.9
2017-06-16T03:06:51.592Z,58.0
2017-06-16T03:07:53.195Z,58.0
2017-06-16T03:08:54.783Z,58.1
2017-06-16T03:09:56.373Z,57.9
2017-06-16T03:10:57.979Z,57.9
2017-06-16T03:11:59.618Z,58.0
2017-06-16T03:13:01.204Z,58.2
2017-06-16T03:14:02.799Z,57.7
2017-06-16T03:15:04.461Z,58.0
2017-06-16T03:16:06.057Z,58.2
2017-06-16T03:17:07.682Z,58.5
2017-06-16T03:18:09.255Z,57.8
2017-06-16T03:19:10.852Z,58.3
2017-06-16T03:20:12.441Z,58.0
2017-06-16T03:21:14.056Z,58.1
2017-06-16T03:22:15.655Z,58.6
2017-06-16T03:23:17.246Z,58.2
2017-06-16T03:24:18.839Z,58.1
2017-06-16T03:25:20.427Z,58.6
2017-06-16T03:26:22.047Z,58.5
2017-06-16T03:27:23.640Z,58.5
2017-06-16T03:28:25.274Z,58.6
2017-06-16T03:29:26.870Z,58.6
2017-06-16T03:30:28.500Z,58.3
2017-06-16T03:31:30.106Z,58.2
2017-06-16T03:32:31.743Z,58.7
2017-06-16T03:33:33.325Z,59.0
2017-06-16T03:34:34.928Z,58.7
2017-06-16T03:35:36.536Z,58.4
2017-06-16T03:36:38.156Z,59.1
2017-06-16T03:37:39.754Z,58.4
2017-06-16T03:38:41.352Z,58.5
2017-06-16T03:39:42.938Z,58.5
2017-06-16T03:40:44.544Z,58.7
2017-06-16T03:41:46.142Z,58.5
2017-06-16T03:42:47.728Z,58.5
2017-06-16T03:43:49.346Z,58.4
2017-06-16T03:44:50.965Z,58.8
2017-06-16T03:45:52.558Z,58.5
2017-06-16T03:46:54.186Z,59.1
2017-06-16T03:47:55.774Z,58.9
2017-06-16T03:48:57.380Z,59.1
2017-06-16T03:49:58.976Z,59.0
2017-06-16T03:51:00.591Z,59.1
2017-06-16T03:52:02.191Z,59.5
2017-06-16T03:53:03.783Z,59.5
2017-06-16T03:54:05.386Z,59.0
2017-06-16T03:55:06.965Z,59.0
2017-06-16T03:56:08.560Z,59.1
2017-06-16T03:57:10.149Z,59.1
2017-06-16T03:58:11.758Z,59.1
2017-06-16T03:59:13.347Z,58.9
2017-06-16T04:00:14.948Z,59.2
2017-06-16T04:01:16.542Z,59.3
2017-06-16T04:02:18.168Z,59.4
2017-06-16T04:03:19.817Z,59.2
2017-06-16T04:04:21.414Z,59.4
2017-06-16T04:05:23.011Z,59.6
2017-06-16T04:06:24.662Z,59.4
2017-06-16T04:07:26.266Z,59.4
2017-06-16T04:08:27.858Z,59.4
2017-06-16T04:09:29.447Z,59.4
2017-06-16T04:10:31.057Z,59.4
2017-06-16T04:11:32.645Z,59.4
2017-06-16T04:12:34.241Z,60.0
2017-06-16T04:13:35.856Z,59.4
2017-06-16T04:14:37.441Z,59.8
2017-06-16T04:15:39.024Z,59.7
2017-06-16T04:16:40.610Z,59.8
2017-06-16T04:17:42.218Z,59.9
2017-06-16T04:18:43.827Z,59.4
2017-06-16T04:19:45.422Z,59.6
2017-06-16T04:20:47.036Z,59.6
2017-06-16T04:21:48.632Z,59.8
2017-06-16T04:22:50.214Z,60.0
2017-06-16T04:23:51.828Z,59.4
2017-06-16T04:24:53.430Z,59.3
2017-06-16T04:25:55.032Z,59.4
2017-06-16T04:26:56.645Z,59.6
2017-06-16T04:27:58.256Z,59.4
2017-06-16T04:28:59.847Z,59.8
2017-06-16T04:30:01.486Z,59.5
2017-06-16T04:31:03.115Z,59.7
2017-06-16T04:32:04.697Z,60.0
2017-06-16T04:33:06.310Z,59.9
2017-06-16T04:34:07.937Z,59.4
2017-06-16T04:35:09.535Z,59.9
2017-06-16T04:36:11.118Z,59.8
2017-06-16T04:37:12.704Z,60.0
2017-06-16T04:38:14.327Z,59.5
2017-06-16T04:39:15.919Z,59.8
2017-06-16T04:40:17.504Z,60.0
2017-06-16T04:41:19.095Z,59.4
2017-06-16T04:42:20.681Z,59.8
2017-06-16T04:43:22.271Z,60.0
2017-06-16T04:44:23.876Z,60.0
2017-06-16T04:45:25.467Z,60.5
2017-06-16T04:46:27.057Z,59.8
2017-06-16T04:47:28.664Z,59.6
2017-06-16T04:48:30.255Z,59.6
2017-06-16T04:49:31.850Z,59.6
2017-06-16T04:50:33.440Z,59.9
2017-06-16T04:51:35.030Z,59.6
2017-06-16T04:52:36.641Z,59.8
2017-06-16T04:53:38.228Z,59.6
2017-06-16T04:54:39.818Z,59.9
2017-06-16T04:55:41.422Z,59.6
2017-06-16T04:56:43.017Z,59.8
2017-06-16T04:57:44.637Z,59.4
2017-06-16T04:58:46.256Z,59.6
2017-06-16T04:59:47.872Z,59.5
2017-06-16T05:00:49.477Z,59.4
2017-06-16T05:01:51.096Z,59.3
2017-06-16T05:02:52.709Z,59.7
2017-06-16T05:03:54.316Z,59.7
2017-06-16T05:04:55.950Z,59.7
2017-06-16T05:05:57.564Z,59.6
2017-06-16T05:06:59.172Z,60.0
2017-06-16T05:08:00.794Z,59.6
2017-06-16T05:09:02.427Z,60.0
2017-06-16T05:10:04.036Z,59.6
2017-06-16T05:11:05.635Z,59.4
2017-06-16T05:12:07.259Z,59.6
2017-06-16T05:13:08.853Z,59.6
2017-06-16T05:14:10.453Z,60.0
2017-06-16T05:15:12.064Z,59.6
2017-06-16T05:16:13.679Z,60.0
2017-06-16T05:17:15.289Z,59.5
2017-06-16T05:18:16.916Z,59.5
2017-06-16T05:19:18.528Z,60.4
2017-06-16T05:20:20.142Z,59.6
2017-06-16T05:21:21.768Z,59.6
2017-06-16T05:22:23.375Z,59.8
2017-06-16T05:23:24.974Z,59.5
2017-06-16T05:24:26.574Z,60.3
2017-06-16T05:25:28.823Z,59.8
2017-06-16T05:26:30.432Z,60.0
2017-06-16T05:27:32.089Z,60.3
2017-06-16T05:28:33.716Z,60.1
2017-06-16T05:29:35.317Z,60.1
2017-06-16T05:30:36.964Z,59.7
2017-06-16T05:31:38.579Z,59.5
2017-06-16T05:32:40.222Z,59.9
2017-06-16T05:33:41.808Z,59.8
2017-06-16T05:34:43.440Z,59.6
2017-06-16T05:35:45.045Z,59.8
2017-06-16T05:36:46.657Z,59.8
2017-06-16T05:37:48.276Z,60.1
2017-06-16T05:38:49.916Z,60.0
2017-06-16T05:39:51.521Z,59.7
2017-06-16T05:40:53.111Z,60.7
2017-06-16T05:41:54.703Z,59.4
2017-06-16T05:42:56.298Z,59.9
2017-06-16T05:43:57.922Z,59.6
2017-06-16T05:44:59.561Z,59.6
2017-06-16T05:46:01.203Z,59.5
2017-06-16T05:47:02.791Z,59.6
2017-06-16T05:48:04.382Z,59.8
2017-06-16T05:49:05.974Z,59.5
2017-06-16T05:50:07.573Z,59.6
2017-06-16T05:51:09.201Z,60.0
2017-06-16T05:52:11.126Z,59.9
2017-06-16T05:53:12.714Z,59.6
2017-06-16T05:54:14.341Z,59.6
2017-06-16T05:55:15.929Z,59.7
2017-06-16T05:56:17.535Z,60.0
2017-06-16T05:57:19.127Z,60.0
2017-06-16T05:58:20.785Z,59.6
2017-06-16T05:59:22.390Z,59.7
2017-06-16T06:00:24.012Z,60.0
2017-06-16T06:01:25.662Z,59.5
2017-06-16T06:02:27.292Z,59.7
2017-06-16T06:03:28.899Z,59.7
2017-06-16T06:04:30.531Z,59.4
2017-06-16T06:05:32.134Z,59.5
2017-06-16T12:47:11.213Z,47.6
2017-06-16T12:48:12.804Z,47.6
2017-06-16T12:50:04.419Z,48.0
2017-06-16T12:51:06.068Z,48.3
2017-06-16T12:52:57.751Z,47.8
2017-06-16T12:53:59.340Z,48.4
2017-06-16T12:55:50.977Z,48.4
2017-06-16T12:56:52.627Z,48.0
2017-06-16T12:58:44.315Z,48.2
2017-06-16T12:59:45.916Z,48.4
2017-06-16T13:01:37.544Z,48.0
2017-06-16T13:02:39.166Z,48.6
2017-06-16T13:04:31.825Z,47.5
2017-06-16T13:05:33.497Z,47.5
2017-06-16T13:07:25.113Z,48.5
2017-06-16T13:08:26.696Z,47.8
2017-06-16T13:10:18.361Z,47.3
2017-06-16T13:11:19.968Z,46.9
2017-06-16T13:13:11.648Z,47.1
2017-06-16T13:14:13.278Z,47.3
2017-06-16T13:16:04.988Z,47.3
2017-06-16T13:17:06.583Z,47.7
2017-06-16T13:18:58.216Z,47.1
2017-06-16T13:19:59.818Z,47.5
2017-06-16T13:21:51.528Z,47.7
2017-06-16T13:22:53.111Z,47.5
2017-06-16T13:24:44.741Z,47.2
2017-06-16T13:25:46.322Z,47.5
2017-06-16T13:27:37.985Z,47.6
2017-06-16T13:28:39.578Z,47.1
2017-06-16T13:30:31.211Z,47.1
2017-06-16T13:31:32.883Z,47.2
2017-06-16T13:33:24.559Z,47.3
2017-06-16T13:34:26.149Z,47.6
2017-06-16T13:36:17.786Z,47.6
2017-06-16T13:37:19.374Z,47.9
2017-06-16T13:39:11.029Z,48.5
2017-06-16T13:40:12.613Z,48.0
2017-06-16T13:42:04.285Z,48.2
2017-06-16T13:43:05.865Z,48.5
2017-06-16T13:44:57.546Z,48.1
2017-06-16T13:45:59.130Z,48.3
2017-06-16T13:47:50.756Z,48.4
2017-06-16T13:48:52.377Z,48.4
2017-06-16T13:50:44.035Z,49.0
2017-06-16T13:51:45.640Z,49.1
2017-06-16T13:53:37.273Z,48.9
2017-06-16T13:54:38.877Z,49.0
2017-06-16T13:56:30.624Z,49.0
2017-06-16T13:57:32.217Z,48.8
2017-06-16T13:59:23.861Z,48.7
2017-06-16T14:00:25.503Z,48.8
2017-06-16T14:02:17.474Z,49.4
2017-06-16T14:03:19.155Z,49.2
